Time;durP1;ratioP1;P1;durP2;ratioP2;P2;SDS_P1;SDS_P2;PMS_P1;PMS_P2;Temp;Humidity;BMP_temperature;BMP_pressure;BME280_temperature;BME280_humidity;BME280_pressure;Samples;Min_cycle;Max_cycle;Signal;HPM_P1;HPM_P2
2023/10/23 00:02:18;;;;;;;;;;;;;;;10.64;100.00;99657.09;5100438;28;19974;-73
2023/10/23 00:05:02;;;;;;;;;;;;;;;10.62;100.00;99661.31;5099303;28;19919;-73
2023/10/23 00:07:46;;;;;;;;;;;;;;;10.59;100.00;99651.66;5098352;28;20264;-73
2023/10/23 00:10:30;;;;;;;;;;;;;;;10.60;100.00;99642.19;5094198;28;20277;-73
2023/10/23 00:13:14;;;;;;;;;;;;;;;10.57;100.00;99642.81;5099791;28;19918;-73
2023/10/23 00:15:58;;;;;;;;;;;;;;;10.55;100.00;99639.53;5096257;28;19923;-73
2023/10/23 00:18:42;;;;;;;;;;;;;;;10.55;100.00;99644.25;5099541;28;20046;-73
2023/10/23 00:21:26;;;;;;;;;;;;;;;10.52;100.00;99632.66;5086999;28;19965;-73
2023/10/23 00:24:10;;;;;;;;;;;;;;;10.50;100.00;99632.16;5082777;28;19931;-73
2023/10/23 00:26:54;;;;;;;;;;;;;;;10.47;100.00;99631.94;5113689;28;19918;-73
2023/10/23 00:29:38;;;;;;;;;;;;;;;10.44;100.00;99636.19;5067795;28;20303;-73
2023/10/23 00:32:22;;;;;;;;;;;;;;;10.48;100.00;99634.44;5125967;27;19919;-73
2023/10/23 00:35:06;;;;;;;;;;;;;;;10.43;100.00;99630.94;5099047;28;19945;-73
2023/10/23 00:37:50;;;;;;;;;;;;;;;10.42;100.00;99630.13;5093257;28;19982;-73
2023/10/23 00:40:34;;;;;;;;;;;;;;;10.43;100.00;99630.94;5098137;28;19978;-73
2023/10/23 00:43:19;;;;;;;;;;;;;;;10.38;100.00;99629.13;5095577;28;20295;-73
2023/10/23 00:46:04;;;;;;;;;;;;;;;10.37;100.00;99630.25;5099526;28;19918;-73
2023/10/23 00:48:48;;;;;;;;;;;;;;;10.40;100.00;99632.41;5086720;28;20271;-73
2023/10/23 00:51:32;;;;;;;;;;;;;;;10.40;100.00;99629.63;5079066;28;19943;-74
2023/10/23 00:54:16;;;;;;;;;;;;;;;10.40;100.00;99629.63;5093364;28;20406;-73
2023/10/23 00:57:00;;;;;;;;;;;;;;;10.32;100.00;99618.47;5097428;28;19942;-73
2023/10/23 00:59:44;;;;;;;;;;;;;;;10.28;100.00;99618.28;5099434;28;19919;-73
2023/10/23 01:02:28;;;;;;;;;;;;;;;10.22;100.00;99619.47;5127524;27;19919;-73
2023/10/23 01:05:12;;;;;;;;;;;;;;;10.20;100.00;99616.22;5098773;28;20371;-73
2023/10/23 01:07:56;;;;;;;;;;;;;;;10.19;100.00;99615.38;5098844;28;19919;-73
2023/10/23 01:10:40;;;;;;;;;;;;;;;10.16;100.00;99617.97;5098816;28;19923;-73
2023/10/23 01:13:27;;;;;;;;;;;;;;;10.13;100.00;99615.81;5085552;28;19919;-73
2023/10/23 01:16:11;;;;;;;;;;;;;;;10.11;100.00;99613.34;5095831;28;19923;-73
2023/10/23 01:18:55;;;;;;;;;;;;;;;10.03;100.00;99612.16;5094091;28;19922;-73
2023/10/23 01:21:39;;;;;;;;;;;;;;;10.09;100.00;99617.59;5098657;28;19947;-73
2023/10/23 01:24:23;;;;;;;;;;;;;;;10.07;100.00;99610.38;5097027;28;19935;-73
2023/10/23 01:27:07;;;;;;;;;;;;;;;10.00;100.00;99607.22;5092806;28;19999;-73
2023/10/23 01:29:51;;;;;;;;;;;;;;;9.97;100.00;99607.00;5087474;28;19919;-73
2023/10/23 01:32:35;;;;;;;;;;;;;;;9.95;100.00;99606.53;5097744;28;20418;-74
2023/10/23 01:35:19;;;;;;;;;;;;;;;9.88;100.00;99593.06;5095268;28;19939;-73
2023/10/23 01:38:03;;;;;;;;;;;;;;;9.84;100.00;99595.66;5098471;28;20296;-74
2023/10/23 01:40:47;;;;;;;;;;;;;;;9.80;100.00;99591.84;5098097;28;20268;-73
2023/10/23 01:43:31;;;;;;;;;;;;;;;9.82;100.00;99600.69;5099149;28;19953;-73
2023/10/23 01:46:15;;;;;;;;;;;;;;;9.79;100.00;99586.63;5092532;28;20008;-73
2023/10/23 01:48:59;;;;;;;;;;;;;;;9.78;100.00;99587.75;5084750;28;19934;-73
2023/10/23 01:51:44;;;;;;;;;;;;;;;9.76;100.00;99590.84;5093489;28;19966;-73
2023/10/23 01:54:28;;;;;;;;;;;;;;;9.73;100.00;99583.13;5082725;28;19920;-73
2023/10/23 01:57:15;;;;;;;;;;;;;;;9.72;100.00;99575.13;5084607;28;20264;-73
2023/10/23 02:00:04;;;;;;;;;;;;;;;9.72;100.00;99573.19;5092810;28;19930;-73
2023/10/23 02:02:47;;;;;;;;;;;;;;;9.70;100.00;99563.53;5087513;28;19957;-73
2023/10/23 02:05:31;;;;;;;;;;;;;;;9.72;100.00;99562.09;5086635;28;20391;-73
2023/10/23 02:08:16;;;;;;;;;;;;;;;9.71;100.00;99566.00;5098804;28;19919;-74
2023/10/23 02:11:00;;;;;;;;;;;;;;;9.71;100.00;99563.22;5092088;28;19935;-73
2023/10/23 02:13:44;;;;;;;;;;;;;;;9.74;100.00;99565.34;5092108;28;19924;-74
2023/10/23 02:16:28;;;;;;;;;;;;;;;9.72;100.00;99561.25;5094742;28;19923;-74
2023/10/23 02:19:12;;;;;;;;;;;;;;;9.72;100.00;99561.25;5091310;28;20276;-73
2023/10/23 02:21:56;;;;;;;;;;;;;;;9.71;100.00;99559.63;5097613;28;19918;-73
2023/10/23 02:24:40;;;;;;;;;;;;;;;9.69;100.00;99561.88;5070000;28;19965;-73
2023/10/23 02:27:24;;;;;;;;;;;;;;;9.71;100.00;99549.34;5080088;28;19927;-74
2023/10/23 02:30:09;;;;;;;;;;;;;;;9.70;100.00;99555.22;5091480;28;19961;-74
2023/10/23 02:32:53;;;;;;;;;;;;;;;9.69;100.00;99539.69;5079361;28;19930;-74
2023/10/23 02:35:37;;;;;;;;;;;;;;;9.69;100.00;99545.25;5091612;28;19954;-73
2023/10/23 02:38:21;;;;;;;;;;;;;;;9.69;100.00;99536.94;5082253;28;20291;-73
2023/10/23 02:41:05;;;;;;;;;;;;;;;9.68;100.00;99532.53;5086952;28;20413;-74
2023/10/23 02:43:52;;;;;;;;;;;;;;;9.68;100.00;99530.56;5097243;28;20046;-74
2023/10/23 02:46:38;;;;;;;;;;;;;;;9.69;100.00;99523.88;5091896;28;19950;-74
2023/10/23 02:49:23;;;;;;;;;;;;;;;9.67;100.00;99517.00;5107486;28;20371;-74
2023/10/23 02:52:06;;;;;;;;;;;;;;;9.63;100.00;99509.31;5092359;28;20030;-74
2023/10/23 02:54:50;;;;;;;;;;;;;;;9.68;100.00;99504.81;5090814;28;19931;-74
2023/10/23 02:57:34;;;;;;;;;;;;;;;9.66;100.00;99507.88;5091007;28;19966;-73
2023/10/23 03:00:21;;;;;;;;;;;;;;;9.65;100.00;99508.22;5092119;28;19958;-73
2023/10/23 03:03:05;;;;;;;;;;;;;;;9.63;100.00;99506.53;5096219;28;19949;-74
2023/10/23 03:05:50;;;;;;;;;;;;;;;9.65;100.00;99513.75;5108487;28;19918;-73
2023/10/23 03:08:34;;;;;;;;;;;;;;;9.65;100.00;99508.22;5088763;28;19919;-74
2023/10/23 03:11:18;;;;;;;;;;;;;;;9.64;100.00;99499.06;5098007;28;20283;-74
2023/10/23 03:14:03;;;;;;;;;;;;;;;9.64;100.00;99499.06;5097812;28;19919;-74
2023/10/23 03:16:47;;;;;;;;;;;;;;;9.63;100.00;99500.19;5078543;28;20058;-73
2023/10/23 03:19:31;;;;;;;;;;;;;;;9.63;100.00;99497.41;5093542;28;20402;-74
2023/10/23 03:22:15;;;;;;;;;;;;;;;9.65;100.00;99497.94;5097861;28;19919;-73
2023/10/23 03:24:59;;;;;;;;;;;;;;;9.63;100.00;99492.69;5091084;28;19962;-74
2023/10/23 03:27:43;;;;;;;;;;;;;;;9.62;100.00;99493.81;5100819;28;19960;-74
2023/10/23 03:30:27;;;;;;;;;;;;;;;9.63;100.00;99487.13;5087923;28;19921;-74
2023/10/23 03:33:11;;;;;;;;;;;;;;;9.62;100.00;99484.69;5101681;28;19919;-74
2023/10/23 03:35:55;;;;;;;;;;;;;;;9.61;100.00;99477.50;5098430;28;20015;-74
2023/10/23 03:38:39;;;;;;;;;;;;;;;9.62;100.00;99474.44;5096537;28;19931;-73
2023/10/23 03:41:25;;;;;;;;;;;;;;;9.60;100.00;99475.88;5080375;28;19920;-74
2023/10/23 03:44:09;;;;;;;;;;;;;;;9.62;100.00;99476.38;5118734;27;19965;-74
2023/10/23 03:46:53;;;;;;;;;;;;;;;9.61;100.00;99478.34;5101656;28;19961;-74
2023/10/23 03:49:37;;;;;;;;;;;;;;;9.60;100.00;99476.69;5094355;28;20008;-73
2023/10/23 03:52:21;;;;;;;;;;;;;;;9.62;100.00;99470.84;5099295;27;19951;-74
2023/10/23 03:55:05;;;;;;;;;;;;;;;9.60;100.00;99462.81;5092764;28;19924;-74
2023/10/23 03:57:49;;;;;;;;;;;;;;;9.61;100.00;99467.25;5094445;28;19970;-74
2023/10/23 04:00:33;;;;;;;;;;;;;;;9.59;100.00;99458.41;5082016;28;19962;-74
2023/10/23 04:03:17;;;;;;;;;;;;;;;9.59;100.00;99465.91;5097827;28;19919;-73
2023/10/23 04:06:02;;;;;;;;;;;;;;;9.61;100.00;99467.25;5101317;28;19934;-74
2023/10/23 04:08:46;;;;;;;;;;;;;;;9.55;100.00;99460.16;5100866;28;19919;-74
2023/10/23 04:11:30;;;;;;;;;;;;;;;9.57;100.00;99460.69;5099963;28;20422;-73
2023/10/23 04:14:14;;;;;;;;;;;;;;;9.57;100.00;99459.88;5100873;28;19934;-73
2023/10/23 04:16:58;;;;;;;;;;;;;;;9.57;100.00;99455.13;5099760;28;20006;-74
2023/10/23 04:19:42;;;;;;;;;;;;;;;9.59;100.00;99441.78;5084216;28;19923;-74
2023/10/23 04:22:26;;;;;;;;;;;;;;;9.58;100.00;99440.16;5095051;28;19919;-74
2023/10/23 04:25:10;;;;;;;;;;;;;;;9.56;100.00;99442.41;5079539;28;20000;-74
2023/10/23 04:27:54;;;;;;;;;;;;;;;9.53;100.00;99437.50;5079639;28;20310;-74
2023/10/23 04:30:39;;;;;;;;;;;;;;;9.56;100.00;99438.84;5096592;28;20308;-74
2023/10/23 04:33:23;;;;;;;;;;;;;;;9.53;100.00;99443.03;5099345;28;19920;-74
2023/10/23 04:36:07;;;;;;;;;;;;;;;9.54;100.00;99441.91;5078994;28;19938;-74
2023/10/23 04:38:51;;;;;;;;;;;;;;;9.52;100.00;99438.63;5082951;28;19969;-74
2023/10/23 04:41:35;;;;;;;;;;;;;;;9.50;100.00;99437.28;5099502;28;20003;-74
2023/10/23 04:44:19;;;;;;;;;;;;;;;9.53;100.00;99429.19;5093523;28;19919;-74
2023/10/23 04:47:03;;;;;;;;;;;;;;;9.50;100.00;99423.44;5097348;28;20256;-73
2023/10/23 04:49:50;;;;;;;;;;;;;;;9.48;100.00;99414.63;5098809;28;19919;-74
2023/10/23 04:52:34;;;;;;;;;;;;;;;9.51;100.00;99408.47;5085235;28;20409;-74
2023/10/23 04:55:18;;;;;;;;;;;;;;;9.48;100.00;99404.34;5082921;28;19965;-74
2023/10/23 04:58:02;;;;;;;;;;;;;;;9.49;100.00;99403.22;5099302;28;19925;-74
2023/10/23 05:00:46;;;;;;;;;;;;;;;9.45;100.00;99404.19;5090164;28;19918;-74
2023/10/23 05:03:31;;;;;;;;;;;;;;;9.44;100.00;99403.34;5097783;28;19954;-74
2023/10/23 05:06:16;;;;;;;;;;;;;;;9.46;100.00;99395.53;5099072;28;20097;-74
2023/10/23 05:09:00;;;;;;;;;;;;;;;9.45;100.00;99385.59;5092966;28;19958;-74
2023/10/23 05:11:44;;;;;;;;;;;;;;;9.42;100.00;99379.84;5098525;28;19955;-74
2023/10/23 05:14:28;;;;;;;;;;;;;;;9.40;100.00;99394.84;5095671;28;20330;-74
2023/10/23 05:17:12;;;;;;;;;;;;;;;9.38;100.00;99388.78;5099843;28;20260;-74
2023/10/23 05:19:57;;;;;;;;;;;;;;;9.42;100.00;99391.75;5088020;28;19919;-74
2023/10/23 05:22:41;;;;;;;;;;;;;;;9.37;100.00;99386.34;5098866;28;19942;-74
2023/10/23 05:25:25;;;;;;;;;;;;;;;9.37;100.00;99380.78;5099765;28;19934;-74
2023/10/23 05:28:09;;;;;;;;;;;;;;;9.39;100.00;99370.22;5094921;28;20267;-74
2023/10/23 05:30:53;;;;;;;;;;;;;;;9.36;100.00;99374.44;5097639;28;19958;-74
2023/10/23 05:33:37;;;;;;;;;;;;;;;9.34;100.00;99362.84;5078433;28;19949;-74
2023/10/23 05:36:21;;;;;;;;;;;;;;;9.35;100.00;99381.09;5095571;28;19927;-74
2023/10/23 05:39:06;;;;;;;;;;;;;;;9.33;100.00;99375.06;5098443;28;19931;-74
2023/10/23 05:41:50;;;;;;;;;;;;;;;9.35;100.00;99363.66;5111978;28;20003;-74
2023/10/23 05:44:34;;;;;;;;;;;;;;;9.36;100.00;99359.75;5098437;28;19919;-74
2023/10/23 05:47:18;;;;;;;;;;;;;;;9.34;100.00;99357.31;5085134;28;20335;-74
2023/10/23 05:50:04;;;;;;;;;;;;;;;9.33;100.00;99349.28;5098186;28;19966;-74
2023/10/23 05:52:48;;;;;;;;;;;;;;;9.31;100.00;99346.03;5087762;28;20388;-74
2023/10/23 05:55:35;;;;;;;;;;;;;;;9.30;100.00;99344.38;5098168;28;19935;-74
2023/10/23 05:58:19;;;;;;;;;;;;;;;9.31;100.00;99341.31;5098200;28;19923;-74
2023/10/23 06:01:03;;;;;;;;;;;;;;;9.31;100.00;99343.25;5072876;28;19919;-74
2023/10/23 06:03:47;;;;;;;;;;;;;;;9.31;100.00;99335.75;5082950;28;20253;-74
2023/10/23 06:06:31;;;;;;;;;;;;;;;9.29;100.00;99332.47;5095004;28;20044;-74
2023/10/23 06:09:15;;;;;;;;;;;;;;;9.31;100.00;99327.47;5092436;28;19920;-74
2023/10/23 06:11:59;;;;;;;;;;;;;;;9.28;100.00;99321.72;5086435;28;19919;-74
2023/10/23 06:14:43;;;;;;;;;;;;;;;9.27;100.00;99317.31;5098881;28;19919;-74
2023/10/23 06:17:28;;;;;;;;;;;;;;;9.27;100.00;99317.31;5092270;28;19919;-74
2023/10/23 06:20:11;;;;;;;;;;;;;;;9.27;100.00;99318.13;5089195;28;19931;-72
2023/10/23 06:22:56;;;;;;;;;;;;;;;9.27;100.00;99314.53;5096718;28;19968;-74
2023/10/23 06:25:40;;;;;;;;;;;;;;;9.26;100.00;99307.38;5097570;28;19919;-74
2023/10/23 06:28:24;;;;;;;;;;;;;;;9.26;100.00;99310.94;5098797;28;19919;-74
2023/10/23 06:31:09;;;;;;;;;;;;;;;9.24;100.00;99304.91;5080792;28;19918;-74
2023/10/23 06:33:53;;;;;;;;;;;;;;;9.23;100.00;99300.50;5094129;28;19919;-74
2023/10/23 06:36:40;;;;;;;;;;;;;;;9.24;100.00;99298.53;5097886;28;20023;-74
2023/10/23 06:39:25;;;;;;;;;;;;;;;9.25;100.00;99297.41;5066232;28;19924;-74
2023/10/23 06:42:09;;;;;;;;;;;;;;;9.23;100.00;99297.72;5108793;28;19996;-74
2023/10/23 06:44:53;;;;;;;;;;;;;;;9.21;100.00;99301.94;5110710;28;19966;-73
2023/10/23 06:47:37;;;;;;;;;;;;;;;9.19;100.00;99288.41;5076587;28;19955;-72
2023/10/23 06:50:21;;;;;;;;;;;;;;;9.19;100.00;99293.94;5095931;28;19970;-74
2023/10/23 06:53:05;;;;;;;;;;;;;;;9.23;100.00;99296.91;5087135;28;20273;-73
2023/10/23 06:55:53;;;;;;;;;;;;;;;9.21;100.00;99296.41;5079637;28;19923;-74
2023/10/23 06:58:37;;;;;;;;;;;;;;;9.18;100.00;99295.91;5096501;28;20000;-74
2023/10/23 07:01:21;;;;;;;;;;;;;;;9.20;100.00;99294.78;5081510;28;19923;-74
2023/10/23 07:04:05;;;;;;;;;;;;;;;9.22;100.00;99286.94;5076253;28;19920;-73
2023/10/23 07:06:49;;;;;;;;;;;;;;;9.22;100.00;99284.19;5095437;28;20323;-74
2023/10/23 07:09:33;;;;;;;;;;;;;;;9.21;100.00;99279.78;5097820;28;19919;-74
2023/10/23 07:12:17;;;;;;;;;;;;;;;9.23;100.00;99274.75;5090949;28;19935;-73
2023/10/23 07:15:02;;;;;;;;;;;;;;;9.26;100.00;99282.44;5082851;28;19923;-74
2023/10/23 07:17:46;;;;;;;;;;;;;;;9.27;100.00;99284.06;5072640;28;20414;-74
2023/10/23 07:20:30;;;;;;;;;;;;;;;9.28;100.00;99286.53;5084252;28;19958;-73
2023/10/23 07:23:14;;;;;;;;;;;;;;;9.32;100.00;99289.47;5084738;28;19994;-73
2023/10/23 07:26:02;;;;;;;;;;;;;;;9.33;100.00;99289.19;5094617;28;20466;-73
2023/10/23 07:28:46;;;;;;;;;;;;;;;9.35;100.00;99297.97;5097765;28;20437;-74
2023/10/23 07:31:30;;;;;;;;;;;;;;;9.37;100.00;99284.63;5097577;28;19919;-73
2023/10/23 07:34:14;;;;;;;;;;;;;;;9.36;100.00;99296.84;5086974;28;19919;-74
2023/10/23 07:36:58;;;;;;;;;;;;;;;9.42;100.00;99300.31;5097072;28;19942;-74
2023/10/23 07:39:47;;;;;;;;;;;;;;;9.41;100.00;99290.34;5097832;28;19921;-74
2023/10/23 07:42:31;;;;;;;;;;;;;;;9.45;100.00;99285.00;5083186;28;19966;-74
2023/10/23 07:45:15;;;;;;;;;;;;;;;9.48;100.00;99290.72;5096356;28;19979;-73
2023/10/23 07:47:59;;;;;;;;;;;;;;;9.51;100.00;99294.81;5097070;28;19958;-74
2023/10/23 07:50:43;;;;;;;;;;;;;;;9.53;100.00;99295.34;5092470;28;20236;-73
2023/10/23 07:53:27;;;;;;;;;;;;;;;9.53;100.00;99292.56;5071635;28;20007;-73
2023/10/23 07:56:12;;;;;;;;;;;;;;;9.55;100.00;99293.84;5076060;28;19979;-74
2023/10/23 07:58:56;;;;;;;;;;;;;;;9.56;100.00;99287.19;5064281;28;19920;-73
2023/10/23 08:01:40;;;;;;;;;;;;;;;9.58;100.00;99284.94;5108726;28;19919;-73
2023/10/23 08:04:24;;;;;;;;;;;;;;;9.62;100.00;99285.09;5075697;28;20273;-74
2023/10/23 08:07:08;;;;;;;;;;;;;;;9.63;100.00;99287.53;5084362;28;20022;-74
2023/10/23 08:09:52;;;;;;;;;;;;;;;9.69;100.00;99292.97;5095575;28;19919;-74
2023/10/23 08:12:37;;;;;;;;;;;;;;;9.70;100.00;99286.31;5096129;28;19918;-73
2023/10/23 08:15:23;;;;;;;;;;;;;;;9.68;100.00;99275.50;5097304;28;19975;-73
2023/10/23 08:18:08;;;;;;;;;;;;;;;9.70;100.00;99286.31;5097909;28;19957;-73
2023/10/23 08:20:52;;;;;;;;;;;;;;;9.73;100.00;99289.25;5095746;28;20419;-74
2023/10/23 08:23:36;;;;;;;;;;;;;;;9.77;100.00;99278.31;5094087;28;20405;-73
2023/10/23 08:26:20;;;;;;;;;;;;;;;9.80;100.00;99283.22;5080986;28;20055;-73
2023/10/23 08:29:04;;;;;;;;;;;;;;;9.80;100.00;99280.47;5125133;27;19926;-74
2023/10/23 08:31:49;;;;;;;;;;;;;;;9.83;100.00;99277.03;5099714;28;20001;-73
2023/10/23 08:34:33;;;;;;;;;;;;;;;9.86;100.00;99276.41;5093451;28;19966;-74
2023/10/23 08:37:17;;;;;;;;;;;;;;;9.89;100.00;99275.78;5094512;28;20875;-73
2023/10/23 08:40:03;;;;;;;;;;;;;;;9.93;100.00;99273.19;5087730;28;19919;-73
2023/10/23 08:42:47;;;;;;;;;;;;;;;9.94;100.00;99275.63;5096230;28;19919;-73
2023/10/23 08:45:31;;;;;;;;;;;;;;;9.99;100.00;99267.16;5084536;28;19958;-74
2023/10/23 08:48:15;;;;;;;;;;;;;;;10.03;100.00;99268.19;5084482;28;19977;-73
2023/10/23 08:50:59;;;;;;;;;;;;;;;10.09;100.00;99266.06;5093483;28;19918;-73
2023/10/23 08:54:03;;;;;;;;;;;;;;;10.10;100.00;99264.94;5112238;28;19964;-74
2023/10/23 08:56:50;;;;;;;;;;;;;;;10.17;100.00;99261.66;5112150;28;20294;-73
2023/10/23 08:59:35;;;;;;;;;;;;;;;10.20;100.00;99252.72;5084650;28;19961;-73
2023/10/23 09:02:19;;;;;;;;;;;;;;;10.24;100.00;99253.72;5098897;28;19919;-73
2023/10/23 09:05:04;;;;;;;;;;;;;;;10.28;100.00;99249.19;5090791;28;19938;-73
2023/10/23 09:07:48;;;;;;;;;;;;;;;10.34;100.00;99256.22;5097127;28;19961;-73
2023/10/23 09:10:32;;;;;;;;;;;;;;;10.39;100.00;99258.00;5100137;28;19919;-73
2023/10/23 09:13:16;;;;;;;;;;;;;;;10.42;100.00;99255.44;5098983;28;19919;-73
2023/10/23 09:16:00;;;;;;;;;;;;;;;10.46;100.00;99248.06;5080075;28;20011;-73
2023/10/23 09:18:46;;;;;;;;;;;;;;;10.54;100.00;99242.88;5078435;28;20467;-73
2023/10/23 09:21:30;;;;;;;;;;;;;;;10.58;100.00;99243.84;5090027;28;20057;-73
2023/10/23 09:24:14;;;;;;;;;;;;;;;10.61;100.00;99238.44;5081486;28;20437;-73
2023/10/23 09:26:58;;;;;;;;;;;;;;;10.65;100.00;99242.22;5098868;28;19937;-73
2023/10/23 09:29:42;;;;;;;;;;;;;;;10.70;100.00;99230.16;5086649;28;19943;-73
2023/10/23 09:32:27;;;;;;;;;;;;;;;10.73;100.00;99229.50;5096102;28;19995;-73
2023/10/23 09:35:11;;;;;;;;;;;;;;;10.77;100.00;99230.47;5091491;28;20383;-73
2023/10/23 09:37:55;;;;;;;;;;;;;;;10.81;100.00;99231.47;5066884;28;20365;-73
2023/10/23 09:40:39;;;;;;;;;;;;;;;10.85;100.00;99228.84;5096453;28;19966;-73
2023/10/23 09:43:23;;;;;;;;;;;;;;;10.89;100.00;99233.41;5084113;28;19981;-73
2023/10/23 09:46:08;;;;;;;;;;;;;;;10.92;100.00;99232.75;5084012;28;19935;-73
2023/10/23 09:48:54;;;;;;;;;;;;;;;10.95;100.00;99229.31;5097927;28;19919;-74
2023/10/23 09:51:41;;;;;;;;;;;;;;;11.02;100.00;99236.34;5093678;28;20380;-73
2023/10/23 09:54:25;;;;;;;;;;;;;;;11.07;100.00;99238.97;5092068;28;19919;-73
2023/10/23 09:57:09;;;;;;;;;;;;;;;11.12;100.00;99238.78;5082759;28;19942;-73
2023/10/23 09:59:55;;;;;;;;;;;;;;;11.15;100.00;99232.56;5096488;28;19918;-74
2023/10/23 10:02:43;;;;;;;;;;;;;;;11.19;100.00;99236.31;5086147;28;19923;-76
2023/10/23 10:05:27;;;;;;;;;;;;;;;11.23;100.00;99231.75;5085636;28;19918;-77
2023/10/23 10:08:13;;;;;;;;;;;;;;;11.26;100.00;99231.09;5098881;28;19961;-77
2023/10/23 10:10:57;;;;;;;;;;;;;;;11.31;100.00;99232.84;5091927;28;19962;-77
2023/10/23 10:13:41;;;;;;;;;;;;;;;11.35;100.00;99234.66;5077461;28;19951;-77
2023/10/23 10:16:26;;;;;;;;;;;;;;;11.38;100.00;99236.78;5096363;28;20471;-76
2023/10/23 10:19:12;;;;;;;;;;;;;;;11.41;100.00;99236.09;5092274;28;19919;-77
2023/10/23 10:22:01;;;;;;;;;;;;;;;11.44;100.00;99236.59;5097728;28;20248;-77
2023/10/23 10:24:45;;;;;;;;;;;;;;;11.48;100.00;99243.13;5084457;28;19919;-77
2023/10/23 10:27:29;;;;;;;;;;;;;;;11.53;100.00;99242.94;5094708;28;20330;-77
2023/10/23 10:30:34;;;;;;;;;;;;;;;11.55;100.00;99244.25;5091222;28;20268;-77
2023/10/23 10:33:21;;;;;;;;;;;;;;;11.59;100.00;99255.56;5086221;28;19922;-77
2023/10/23 10:36:05;;;;;;;;;;;;;;;11.60;100.00;99252.41;5087406;28;19922;-77
2023/10/23 10:38:49;;;;;;;;;;;;;;;11.64;100.00;99258.13;5094554;28;19927;-76
2023/10/23 10:41:36;;;;;;;;;;;;;;;11.66;100.00;99255.03;5094651;28;19918;-76
2023/10/23 10:44:20;;;;;;;;;;;;;;;11.69;100.00;99260.72;5080738;28;19919;-76
2023/10/23 10:47:11;;;;;;;;;;;;;;;11.70;100.00;99261.53;5082700;28;19977;-73
2023/10/23 10:49:55;;;;;;;;;;;;;;;11.72;100.00;99265.63;5091940;28;20315;-74
2023/10/23 10:52:40;;;;;;;;;;;;;;;11.75;100.00;99264.16;5090589;28;20005;-74
2023/10/23 10:55:24;;;;;;;;;;;;;;;11.75;100.00;99264.97;5096921;28;20387;-73
2023/10/23 10:58:08;;;;;;;;;;;;;;;11.78;100.00;99266.25;5095381;28;19920;-74
2023/10/23 11:00:52;;;;;;;;;;;;;;;11.78;100.00;99267.09;5094404;28;19970;-74
2023/10/23 11:03:41;;;;;;;;;;;;;;;11.80;100.00;99267.56;5096752;28;19923;-73
2023/10/23 11:06:25;;;;;;;;;;;;;;;11.80;100.00;99266.75;5097073;28;19918;-73
2023/10/23 11:09:09;;;;;;;;;;;;;;;11.80;100.00;99261.19;5096809;28;19919;-73
2023/10/23 11:11:56;;;;;;;;;;;;;;;11.79;100.00;99265.94;5070522;28;19919;-74
2023/10/23 11:14:40;;;;;;;;;;;;;;;11.79;100.00;99265.13;5097946;28;20276;-73
2023/10/23 11:17:24;;;;;;;;;;;;;;;11.77;100.00;99268.25;5089881;28;20268;-74
2023/10/23 11:20:09;;;;;;;;;;;;;;;11.77;100.00;99267.44;5086972;28;19978;-74
2023/10/23 11:22:53;;;;;;;;;;;;;;;11.75;100.00;99264.97;5081620;28;19965;-74
2023/10/23 11:25:37;;;;;;;;;;;;;;;11.73;100.00;99261.72;5097693;28;19919;-74
2023/10/23 11:28:21;;;;;;;;;;;;;;;11.72;100.00;99265.63;5076491;28;19923;-73
2023/10/23 11:31:05;;;;;;;;;;;;;;;11.73;100.00;99272.00;5095836;28;19918;-74
2023/10/23 11:33:54;;;;;;;;;;;;;;;11.72;100.00;99273.16;5096240;28;19927;-74
2023/10/23 11:36:39;;;;;;;;;;;;;;;11.69;100.00;99266.31;5087504;28;19924;-74
2023/10/23 11:39:22;;;;;;;;;;;;;;;11.69;100.00;99274.63;5082510;28;19986;-74
2023/10/23 11:42:06;;;;;;;;;;;;;;;11.67;100.00;99274.16;5097651;28;19923;-74
2023/10/23 11:44:50;;;;;;;;;;;;;;;11.67;100.00;99267.78;5082219;28;20268;-73
2023/10/23 11:47:37;;;;;;;;;;;;;;;11.68;100.00;99264.69;5084695;28;19951;-74
2023/10/23 11:50:21;;;;;;;;;;;;;;;11.68;100.00;99275.81;5081426;28;19950;-73
2023/10/23 11:53:05;;;;;;;;;;;;;;;11.67;100.00;99268.59;5071504;28;19918;-73
2023/10/23 11:55:49;;;;;;;;;;;;;;;11.67;100.00;99267.78;5088569;28;19918;-74
2023/10/23 11:58:32;;;;;;;;;;;;;;;11.66;100.00;99269.75;5081895;28;19958;-74
2023/10/23 12:01:16;;;;;;;;;;;;;;;11.66;100.00;99253.06;5082323;28;19958;-74
2023/10/23 12:04:01;;;;;;;;;;;;;;;11.63;100.00;99257.31;5094211;28;19920;-74
2023/10/23 12:06:44;;;;;;;;;;;;;;;11.63;100.00;99257.31;5099100;28;19921;-74
2023/10/23 12:09:29;;;;;;;;;;;;;;;11.63;100.00;99250.94;5100195;28;19980;-74
2023/10/23 12:12:12;;;;;;;;;;;;;;;11.61;100.00;99247.66;5094039;28;19934;-73
2023/10/23 12:14:57;;;;;;;;;;;;;;;11.61;100.00;99244.88;5081891;28;19923;-74
2023/10/23 12:17:41;;;;;;;;;;;;;;;11.62;100.00;99255.69;5100901;28;21015;-74
2023/10/23 12:20:26;;;;;;;;;;;;;;;11.60;100.00;99257.16;5100094;28;19923;-74
2023/10/23 12:23:10;;;;;;;;;;;;;;;11.60;100.00;99246.84;5087812;28;19973;-74
2023/10/23 12:25:54;;;;;;;;;;;;;;;11.63;100.00;99250.94;5100733;28;19934;-73
2023/10/23 12:28:38;;;;;;;;;;;;;;;11.63;100.00;99250.94;5093842;28;19934;-74
2023/10/23 12:31:22;;;;;;;;;;;;;;;11.63;100.00;99246.19;5086697;28;19997;-74
2023/10/23 12:34:06;;;;;;;;;;;;;;;11.68;100.00;99247.19;5083969;28;19969;-74
2023/10/23 12:36:50;;;;;;;;;;;;;;;11.70;100.00;99248.47;5093829;28;20037;-74
2023/10/23 12:39:34;;;;;;;;;;;;;;;11.74;100.00;99252.22;5093797;28;20006;-73
2023/10/23 12:42:18;;;;;;;;;;;;;;;11.76;100.00;99233.25;5098447;28;20268;-73
2023/10/23 12:45:03;;;;;;;;;;;;;;;11.81;100.00;99233.06;5095650;28;19959;-74
2023/10/23 12:47:46;;;;;;;;;;;;;;;11.85;100.00;99230.41;5092974;28;19920;-74
2023/10/23 12:50:31;;;;;;;;;;;;;;;11.91;100.00;99233.84;5080401;28;19950;-74
2023/10/23 12:53:15;;;;;;;;;;;;;;;11.97;100.00;99238.88;5095982;28;19919;-74
2023/10/23 12:55:59;;;;;;;;;;;;;;;12.04;100.00;99233.63;5100167;28;20015;-74
2023/10/23 12:58:44;;;;;;;;;;;;;;;12.11;100.00;99238.66;5099218;28;19918;-74
2023/10/23 13:01:27;;;;;;;;;;;;;;;12.19;100.00;99223.09;5086654;28;19920;-74
2023/10/23 13:04:11;;;;;;;;;;;;;;;12.29;100.00;99223.50;5097432;28;19966;-74
2023/10/23 13:06:55;;;;;;;;;;;;;;;12.41;100.00;99213.63;5086154;28;19938;-74
2023/10/23 13:09:39;;;;;;;;;;;;;;;12.55;100.00;99213.34;5096718;28;19919;-74
2023/10/23 13:12:23;;;;;;;;;;;;;;;12.69;100.00;99214.72;5093089;28;19919;-74
2023/10/23 13:15:08;;;;;;;;;;;;;;;12.85;100.00;99206.56;5088144;28;19923;-74
2023/10/23 13:17:53;;;;;;;;;;;;;;;13.01;100.00;99201.19;5111683;28;20015;-73
2023/10/23 13:20:38;;;;;;;;;;;;;;;13.16;100.00;99183.81;5084219;28;19919;-74
2023/10/23 13:23:22;;;;;;;;;;;;;;;13.29;100.00;99190.28;5084560;28;19923;-74
2023/10/23 13:26:06;;;;;;;;;;;;;;;13.40;100.00;99191.47;5098203;28;19961;-74
2023/10/23 13:28:50;;;;;;;;;;;;;;;13.47;100.00;99184.50;5099663;28;19962;-74
2023/10/23 13:31:34;;;;;;;;;;;;;;;13.54;100.00;99191.13;5096973;28;19919;-74
2023/10/23 13:34:18;;;;;;;;;;;;;;;13.62;100.00;99181.03;5098173;28;19919;-74
2023/10/23 13:37:02;;;;;;;;;;;;;;;13.65;100.00;99180.34;5081398;28;20300;-74
2023/10/23 13:39:47;;;;;;;;;;;;;;;13.71;100.00;99180.94;5098059;28;19918;-74
2023/10/23 13:42:30;;;;;;;;;;;;;;;13.70;100.00;99185.69;5070578;28;20000;-74
2023/10/23 13:45:15;;;;;;;;;;;;;;;13.72;100.00;99182.56;5095327;28;19918;-74
2023/10/23 13:47:59;;;;;;;;;;;;;;;13.72;100.00;99176.97;5077148;28;19997;-74
2023/10/23 13:50:48;;;;;;;;;;;;;;;13.75;100.00;99176.28;5087585;28;19919;-74
2023/10/23 13:53:33;;;;;;;;;;;;;;;13.78;100.00;99183.94;5070765;28;20045;-74
2023/10/23 13:56:17;;;;;;;;;;;;;;;13.77;100.00;99174.78;5097577;28;19984;-74
2023/10/23 13:59:01;;;;;;;;;;;;;;;13.82;100.00;99174.53;5086357;28;19933;-74
2023/10/23 14:01:46;;;;;;;;;;;;;;;13.87;100.00;99173.47;5083568;28;19961;-74
2023/10/23 14:04:30;;;;;;;;;;;;;;;13.92;100.00;99169.66;5081949;28;19923;-74
2023/10/23 14:07:14;;;;;;;;;;;;;;;13.94;100.00;99159.78;5098176;28;19919;-74
2023/10/23 14:09:58;;;;;;;;;;;;;;;14.01;100.00;99165.59;5087642;28;19919;-74
2023/10/23 14:12:44;;;;;;;;;;;;;;;14.03;100.00;99157.66;5102977;28;20405;-74